RYR64E EDLW-EGGW
Flight info
| Callsign | RYR64E |
|---|---|
| Flight time | 1h 9m |
| Altitude | 32000 |
| Route | DOMEG3Q DOMEG N853 HMM L602 FLEVO L980 IDRID M40 RINIS RINIS1N |
| Aircraft | B738/M-SDE2E3FGHIRWXY/LB1 |
Departure
| Time | 2026-05-05 18:58 |
|---|---|
| Airport | Dortmund Airport (EDLW) |
Arrival
| Time | 2026-05-05 20:07 |
|---|---|
| Airport | London Luton Airport (EGGW) |
| Time | Latitude | Longitude | Altitude | Speed | Heading |
|---|---|---|---|---|---|
| 2026-05-05 18:31 | 51.51390 | 7.60942 | 433 ft | 0 kts | 143° |
| 2026-05-05 18:44 | 51.51404 | 7.60925 | 419 ft | 4 kts | 136° |
| 2026-05-05 18:44 | 51.51420 | 7.60892 | 430 ft | 4 kts | 116° |
| 2026-05-05 18:44 | 51.51428 | 7.60852 | 421 ft | 4 kts | 90° |
| 2026-05-05 18:45 | 51.51423 | 7.60810 | 424 ft | 4 kts | 64° |
| 2026-05-05 18:45 | 51.51419 | 7.60798 | 427 ft | 0 kts | 60° |
| 2026-05-05 18:51 | 51.51425 | 7.60814 | 433 ft | 7 kts | 59° |
| 2026-05-05 18:51 | 51.51449 | 7.60881 | 430 ft | 3 kts | 61° |
| 2026-05-05 18:52 | 51.51476 | 7.60960 | 431 ft | 11 kts | 61° |
| 2026-05-05 18:52 | 51.51508 | 7.61043 | 425 ft | 10 kts | 52° |
| 2026-05-05 18:52 | 51.51569 | 7.61030 | 432 ft | 10 kts | 306° |
| 2026-05-05 18:52 | 51.51547 | 7.60929 | 425 ft | 14 kts | 242° |
| 2026-05-05 18:53 | 51.51499 | 7.60790 | 417 ft | 12 kts | 240° |
| 2026-05-05 18:53 | 51.51448 | 7.60644 | 419 ft | 17 kts | 240° |
| 2026-05-05 18:53 | 51.51415 | 7.60551 | 416 ft | 0 kts | 240° |
| 2026-05-05 18:55 | 51.51414 | 7.60549 | 416 ft | 2 kts | 240° |
| 2026-05-05 18:55 | 51.51381 | 7.60456 | 418 ft | 18 kts | 240° |
| 2026-05-05 18:55 | 51.51373 | 7.60302 | 413 ft | 15 kts | 310° |
| 2026-05-05 18:55 | 51.51468 | 7.60232 | 410 ft | 9 kts | 2° |
| 2026-05-05 18:56 | 51.51506 | 7.60294 | 412 ft | 1 kts | 60° |
| 2026-05-05 18:56 | 51.51506 | 7.60295 | 412 ft | 0 kts | 60° |
| 2026-05-05 18:57 | 51.51515 | 7.60319 | 412 ft | 15 kts | 60° |
| 2026-05-05 18:57 | 51.51734 | 7.60940 | 411 ft | 110 kts | 60° |
| 2026-05-05 18:57 | 51.52244 | 7.62373 | 603 ft | 173 kts | 57° |
| 2026-05-05 18:58 | 51.52939 | 7.64164 | 1242 ft | 209 kts | 55° |
| 2026-05-05 18:58 | 51.53687 | 7.66030 | 2045 ft | 191 kts | 59° |
| 2026-05-05 18:58 | 51.54320 | 7.67890 | 2683 ft | 195 kts | 64° |
| 2026-05-05 18:58 | 51.54951 | 7.69875 | 3122 ft | 203 kts | 63° |
| 2026-05-05 18:59 | 51.55642 | 7.71962 | 3351 ft | 222 kts | 62° |
| 2026-05-05 18:59 | 51.56406 | 7.74198 | 3746 ft | 234 kts | 62° |
| 2026-05-05 18:59 | 51.57297 | 7.76537 | 4008 ft | 254 kts | 49° |
| 2026-05-05 18:59 | 51.58834 | 7.77974 | 4651 ft | 266 kts | 13° |
| 2026-05-05 19:00 | 51.60684 | 7.77834 | 5491 ft | 271 kts | 345° |
| 2026-05-05 19:00 | 51.62401 | 7.76502 | 6252 ft | 278 kts | 327° |
| 2026-05-05 19:00 | 51.63814 | 7.74402 | 7083 ft | 278 kts | 306° |
| 2026-05-05 19:00 | 51.64924 | 7.71836 | 7892 ft | 281 kts | 304° |
| 2026-05-05 19:01 | 51.66068 | 7.69254 | 8642 ft | 285 kts | 306° |
| 2026-05-05 19:01 | 51.67254 | 7.66675 | 9485 ft | 286 kts | 306° |
| 2026-05-05 19:01 | 51.68463 | 7.64089 | 10160 ft | 293 kts | 306° |
| 2026-05-05 19:01 | 51.69928 | 7.61637 | 10330 ft | 319 kts | 327° |
| 2026-05-05 19:02 | 51.72081 | 7.60425 | 10532 ft | 341 kts | 355° |
| 2026-05-05 19:02 | 51.74479 | 7.60981 | 10752 ft | 360 kts | 22° |
| 2026-05-05 19:02 | 51.76694 | 7.62955 | 11271 ft | 368 kts | 32° |
| 2026-05-05 19:02 | 51.78911 | 7.65056 | 11971 ft | 371 kts | 30° |
| 2026-05-05 19:03 | 51.81310 | 7.66676 | 12461 ft | 381 kts | 10° |
| 2026-05-05 19:03 | 51.83950 | 7.66575 | 13149 ft | 383 kts | 345° |
| 2026-05-05 19:03 | 51.86381 | 7.64854 | 13899 ft | 382 kts | 324° |
| 2026-05-05 19:03 | 51.88313 | 7.61921 | 14522 ft | 384 kts | 304° |
| 2026-05-05 19:04 | 51.89599 | 7.58184 | 15137 ft | 386 kts | 294° |
| 2026-05-05 19:04 | 51.90757 | 7.54242 | 15803 ft | 390 kts | 293° |
| 2026-05-05 19:04 | 51.91907 | 7.50239 | 16450 ft | 394 kts | 293° |
| 2026-05-05 19:04 | 51.93073 | 7.46181 | 17090 ft | 399 kts | 293° |
| 2026-05-05 19:05 | 51.94264 | 7.42068 | 17722 ft | 403 kts | 294° |
| 2026-05-05 19:05 | 51.95469 | 7.37938 | 18322 ft | 408 kts | 294° |
| 2026-05-05 19:05 | 51.96692 | 7.33764 | 18890 ft | 411 kts | 295° |
| 2026-05-05 19:05 | 51.97918 | 7.29591 | 19514 ft | 411 kts | 294° |
| 2026-05-05 19:06 | 51.99154 | 7.25381 | 19827 ft | 415 kts | 294° |
| 2026-05-05 19:06 | 52.00383 | 7.21186 | 19848 ft | 419 kts | 294° |
| 2026-05-05 19:06 | 52.01630 | 7.16926 | 19857 ft | 416 kts | 293° |
| 2026-05-05 19:06 | 52.02866 | 7.12699 | 19855 ft | 413 kts | 293° |
| 2026-05-05 19:07 | 52.04107 | 7.08439 | 19980 ft | 420 kts | 294° |
| 2026-05-05 19:07 | 52.05359 | 7.04134 | 20525 ft | 422 kts | 293° |
| 2026-05-05 19:07 | 52.06595 | 6.99881 | 21152 ft | 422 kts | 293° |
| 2026-05-05 19:07 | 52.07817 | 6.95654 | 21656 ft | 425 kts | 292° |
| 2026-05-05 19:08 | 52.09055 | 6.91259 | 22167 ft | 429 kts | 291° |
| 2026-05-05 19:08 | 52.10290 | 6.86824 | 22711 ft | 431 kts | 291° |
| 2026-05-05 19:08 | 52.11528 | 6.82382 | 23293 ft | 432 kts | 291° |
| 2026-05-05 19:08 | 52.12799 | 6.77931 | 23717 ft | 436 kts | 292° |
| 2026-05-05 19:09 | 52.14054 | 6.73420 | 24090 ft | 438 kts | 289° |
| 2026-05-05 19:09 | 52.15139 | 6.68772 | 24488 ft | 439 kts | 287° |
| 2026-05-05 19:09 | 52.16148 | 6.64070 | 24890 ft | 441 kts | 286° |
| 2026-05-05 19:09 | 52.17146 | 6.59327 | 25274 ft | 444 kts | 286° |
| 2026-05-05 19:10 | 52.18159 | 6.54556 | 25649 ft | 446 kts | 286° |
| 2026-05-05 19:10 | 52.19192 | 6.49767 | 26019 ft | 449 kts | 286° |
| 2026-05-05 19:10 | 52.20228 | 6.45016 | 26373 ft | 452 kts | 287° |
| 2026-05-05 19:10 | 52.21287 | 6.40180 | 26743 ft | 454 kts | 287° |
| 2026-05-05 19:11 | 52.22352 | 6.35321 | 27131 ft | 455 kts | 287° |
| 2026-05-05 19:11 | 52.23419 | 6.30439 | 27472 ft | 457 kts | 286° |
| 2026-05-05 19:11 | 52.24486 | 6.25535 | 27785 ft | 460 kts | 286° |
| 2026-05-05 19:11 | 52.25561 | 6.20580 | 27883 ft | 466 kts | 286° |
| 2026-05-05 19:12 | 52.26646 | 6.15580 | 28006 ft | 469 kts | 286° |
| 2026-05-05 19:12 | 52.27731 | 6.10574 | 28466 ft | 467 kts | 286° |
| 2026-05-05 19:12 | 52.28815 | 6.05566 | 28914 ft | 466 kts | 286° |
| 2026-05-05 19:12 | 52.29894 | 6.00566 | 29301 ft | 467 kts | 286° |
| 2026-05-05 19:13 | 52.30937 | 5.95715 | 29689 ft | 466 kts | 286° |
| 2026-05-05 19:13 | 52.32009 | 5.90721 | 30136 ft | 465 kts | 286° |
| 2026-05-05 19:13 | 52.33074 | 5.85750 | 30549 ft | 463 kts | 286° |
| 2026-05-05 19:13 | 52.34134 | 5.80781 | 30906 ft | 462 kts | 285° |
| 2026-05-05 19:14 | 52.35192 | 5.75816 | 31225 ft | 462 kts | 285° |
| 2026-05-05 19:14 | 52.36249 | 5.70844 | 31571 ft | 462 kts | 285° |
| 2026-05-05 19:14 | 52.37279 | 5.65866 | 31893 ft | 460 kts | 282° |
| 2026-05-05 19:14 | 52.37914 | 5.60817 | 31900 ft | 459 kts | 272° |
| 2026-05-05 19:15 | 52.37688 | 5.50549 | 31916 ft | 447 kts | 256° |
| 2026-05-05 19:15 | 52.36619 | 5.40526 | 31917 ft | 444 kts | 257° |
| 2026-05-05 19:16 | 52.35623 | 5.30575 | 31915 ft | 446 kts | 257° |
| 2026-05-05 19:16 | 52.34638 | 5.20526 | 31910 ft | 448 kts | 257° |
| 2026-05-05 19:17 | 52.33624 | 5.10477 | 31909 ft | 448 kts | 256° |
| 2026-05-05 19:17 | 52.31890 | 5.00746 | 31910 ft | 444 kts | 248° |
| 2026-05-05 19:18 | 52.29863 | 4.91389 | 31919 ft | 444 kts | 248° |
| 2026-05-05 19:18 | 52.27843 | 4.81852 | 31911 ft | 444 kts | 248° |
| 2026-05-05 19:19 | 52.25854 | 4.72303 | 31912 ft | 444 kts | 248° |
| 2026-05-05 19:19 | 52.23875 | 4.62833 | 31897 ft | 443 kts | 248° |
| 2026-05-05 19:20 | 52.21881 | 4.53332 | 31909 ft | 443 kts | 248° |
| 2026-05-05 19:20 | 52.19888 | 4.43847 | 31895 ft | 442 kts | 248° |
| 2026-05-05 19:21 | 52.17884 | 4.34356 | 31903 ft | 442 kts | 248° |
| 2026-05-05 19:21 | 52.15876 | 4.24885 | 31912 ft | 443 kts | 248° |
| 2026-05-05 19:22 | 52.13851 | 4.15382 | 31914 ft | 444 kts | 248° |
| 2026-05-05 19:22 | 52.11817 | 4.05880 | 31913 ft | 444 kts | 248° |
| 2026-05-05 19:23 | 52.09864 | 3.96795 | 31913 ft | 445 kts | 248° |
| 2026-05-05 19:23 | 52.07810 | 3.87279 | 31921 ft | 446 kts | 248° |
| 2026-05-05 19:24 | 52.05752 | 3.77788 | 31914 ft | 446 kts | 248° |
| 2026-05-05 19:24 | 52.03685 | 3.68280 | 31920 ft | 446 kts | 248° |
| 2026-05-05 19:25 | 52.01617 | 3.58797 | 31915 ft | 445 kts | 248° |
| 2026-05-05 19:25 | 51.99596 | 3.49283 | 31921 ft | 447 kts | 252° |
| 2026-05-05 19:26 | 51.98580 | 3.39287 | 31934 ft | 450 kts | 259° |
| 2026-05-05 19:26 | 51.97725 | 3.29301 | 31938 ft | 450 kts | 258° |
| 2026-05-05 19:27 | 51.96796 | 3.19248 | 31931 ft | 451 kts | 258° |
| 2026-05-05 19:27 | 51.95989 | 3.09258 | 31911 ft | 434 kts | 261° |
| 2026-05-05 19:28 | 51.95700 | 3.04476 | 31915 ft | 418 kts | 261° |
| 2026-05-05 19:28 | 51.95429 | 2.99908 | 31915 ft | 403 kts | 261° |
| 2026-05-05 19:28 | 51.95233 | 2.95551 | 31849 ft | 389 kts | 261° |
| 2026-05-05 19:28 | 51.94970 | 2.91276 | 31748 ft | 371 kts | 260° |
| 2026-05-05 19:29 | 51.94667 | 2.87190 | 31438 ft | 361 kts | 259° |
| 2026-05-05 19:29 | 51.94362 | 2.83166 | 30874 ft | 359 kts | 259° |
| 2026-05-05 19:29 | 51.94066 | 2.79153 | 30275 ft | 358 kts | 260° |
| 2026-05-05 19:29 | 51.93784 | 2.75152 | 29691 ft | 356 kts | 261° |
| 2026-05-05 19:30 | 51.93514 | 2.71244 | 29181 ft | 350 kts | 261° |
| 2026-05-05 19:30 | 51.93331 | 2.68588 | 28853 ft | 351 kts | 260° |
| 2026-05-05 19:31 | 51.93229 | 2.67100 | 28688 ft | 350 kts | 260° |
| 2026-05-05 19:31 | 51.92961 | 2.63201 | 28363 ft | 347 kts | 261° |
| 2026-05-05 19:31 | 51.92696 | 2.59333 | 27902 ft | 345 kts | 262° |
| 2026-05-05 19:32 | 51.92418 | 2.55339 | 26373 ft | 368 kts | 260° |
| 2026-05-05 19:32 | 51.92124 | 2.51143 | 25078 ft | 382 kts | 262° |
| 2026-05-05 19:32 | 51.91822 | 2.46800 | 23837 ft | 393 kts | 262° |
| 2026-05-05 19:32 | 51.91521 | 2.42448 | 23163 ft | 386 kts | 263° |
| 2026-05-05 19:33 | 51.91223 | 2.38180 | 22587 ft | 376 kts | 263° |
| 2026-05-05 19:33 | 51.90929 | 2.34021 | 22062 ft | 368 kts | 263° |
| 2026-05-05 19:33 | 51.90687 | 2.29936 | 21683 ft | 364 kts | 266° |
| 2026-05-05 19:33 | 51.90573 | 2.25732 | 21326 ft | 384 kts | 268° |
| 2026-05-05 19:34 | 51.90523 | 2.22833 | 21060 ft | 392 kts | 268° |
| 2026-05-05 19:34 | 51.90453 | 2.18410 | 20638 ft | 394 kts | 268° |
| 2026-05-05 19:34 | 51.90373 | 2.13982 | 20229 ft | 393 kts | 268° |
| 2026-05-05 19:35 | 51.90148 | 2.03728 | 19299 ft | 391 kts | 268° |
| 2026-05-05 19:35 | 51.90045 | 1.99473 | 18920 ft | 390 kts | 268° |
| 2026-05-05 19:35 | 51.89971 | 1.96508 | 18653 ft | 389 kts | 268° |
| 2026-05-05 19:35 | 51.89892 | 1.92133 | 18262 ft | 388 kts | 272° |
| 2026-05-05 19:36 | 51.90471 | 1.87956 | 17894 ft | 384 kts | 293° |
| 2026-05-05 19:36 | 51.91836 | 1.84313 | 17799 ft | 375 kts | 309° |
| 2026-05-05 19:36 | 51.93512 | 1.81059 | 17675 ft | 378 kts | 310° |
| 2026-05-05 19:36 | 51.95226 | 1.77825 | 17542 ft | 380 kts | 311° |
| 2026-05-05 19:37 | 51.96950 | 1.74574 | 17411 ft | 379 kts | 310° |
| 2026-05-05 19:37 | 51.98657 | 1.71328 | 17285 ft | 377 kts | 310° |
| 2026-05-05 19:37 | 52.00346 | 1.68087 | 17165 ft | 376 kts | 310° |
| 2026-05-05 19:37 | 52.02026 | 1.64839 | 17042 ft | 374 kts | 310° |
| 2026-05-05 19:38 | 52.03696 | 1.61599 | 16920 ft | 373 kts | 310° |
| 2026-05-05 19:38 | 52.05353 | 1.58374 | 16804 ft | 372 kts | 309° |
| 2026-05-05 19:38 | 52.07009 | 1.55143 | 16691 ft | 370 kts | 309° |
| 2026-05-05 19:38 | 52.08632 | 1.51972 | 16567 ft | 369 kts | 309° |
| 2026-05-05 19:39 | 52.10295 | 1.48721 | 16449 ft | 368 kts | 309° |
| 2026-05-05 19:39 | 52.11931 | 1.45522 | 16333 ft | 367 kts | 309° |
| 2026-05-05 19:39 | 52.13560 | 1.42329 | 16210 ft | 366 kts | 309° |
| 2026-05-05 19:39 | 52.15173 | 1.39135 | 16093 ft | 364 kts | 306° |
| 2026-05-05 19:40 | 52.16321 | 1.35504 | 15957 ft | 362 kts | 286° |
| 2026-05-05 19:40 | 52.16770 | 1.31540 | 15872 ft | 360 kts | 277° |
| 2026-05-05 19:40 | 52.17050 | 1.27485 | 15750 ft | 360 kts | 276° |
| 2026-05-05 19:40 | 52.17335 | 1.23442 | 15630 ft | 360 kts | 277° |
| 2026-05-05 19:41 | 52.17636 | 1.19397 | 15517 ft | 360 kts | 277° |
| 2026-05-05 19:41 | 52.17948 | 1.15348 | 15400 ft | 360 kts | 277° |
| 2026-05-05 19:41 | 52.18264 | 1.11300 | 15280 ft | 360 kts | 277° |
| 2026-05-05 19:41 | 52.18579 | 1.07265 | 15160 ft | 359 kts | 277° |
| 2026-05-05 19:42 | 52.18892 | 1.03227 | 15048 ft | 358 kts | 277° |
| 2026-05-05 19:42 | 52.19192 | 0.99346 | 14935 ft | 358 kts | 277° |
| 2026-05-05 19:42 | 52.19501 | 0.95332 | 14817 ft | 357 kts | 277° |
| 2026-05-05 19:42 | 52.19807 | 0.91327 | 14710 ft | 356 kts | 277° |
| 2026-05-05 19:43 | 52.20111 | 0.87332 | 14598 ft | 355 kts | 277° |
| 2026-05-05 19:43 | 52.20410 | 0.83386 | 14485 ft | 354 kts | 277° |
| 2026-05-05 19:43 | 52.20705 | 0.79461 | 14356 ft | 343 kts | 277° |
| 2026-05-05 19:43 | 52.20991 | 0.75664 | 14240 ft | 331 kts | 277° |
| 2026-05-05 19:44 | 52.21265 | 0.72006 | 14127 ft | 319 kts | 277° |
| 2026-05-05 19:44 | 52.21527 | 0.68479 | 14026 ft | 308 kts | 277° |
| 2026-05-05 19:44 | 52.21780 | 0.65063 | 13920 ft | 299 kts | 277° |
| 2026-05-05 19:44 | 52.22025 | 0.61740 | 13793 ft | 292 kts | 277° |
| 2026-05-05 19:45 | 52.22264 | 0.58473 | 13666 ft | 289 kts | 277° |
| 2026-05-05 19:45 | 52.22503 | 0.55212 | 13544 ft | 292 kts | 277° |
| 2026-05-05 19:45 | 52.22744 | 0.51896 | 13422 ft | 297 kts | 277° |
| 2026-05-05 19:45 | 52.22988 | 0.48546 | 13283 ft | 297 kts | 277° |
| 2026-05-05 19:46 | 52.23227 | 0.45229 | 13153 ft | 293 kts | 277° |
| 2026-05-05 19:46 | 52.23463 | 0.41958 | 13019 ft | 289 kts | 277° |
| 2026-05-05 19:46 | 52.23696 | 0.38712 | 12883 ft | 287 kts | 277° |
| 2026-05-05 19:46 | 52.23928 | 0.35474 | 12769 ft | 289 kts | 277° |
| 2026-05-05 19:47 | 52.24160 | 0.32206 | 12654 ft | 290 kts | 277° |
| 2026-05-05 19:47 | 52.24394 | 0.28927 | 12516 ft | 293 kts | 277° |
| 2026-05-05 19:47 | 52.24629 | 0.25617 | 12401 ft | 294 kts | 277° |
| 2026-05-05 19:47 | 52.24862 | 0.22303 | 12267 ft | 295 kts | 277° |
| 2026-05-05 19:48 | 52.25093 | 0.18998 | 12140 ft | 291 kts | 277° |
| 2026-05-05 19:48 | 52.25317 | 0.15771 | 12005 ft | 288 kts | 277° |
| 2026-05-05 19:48 | 52.25544 | 0.12497 | 11892 ft | 286 kts | 277° |
| 2026-05-05 19:48 | 52.25764 | 0.09323 | 11766 ft | 285 kts | 278° |
| 2026-05-05 19:49 | 52.25985 | 0.06130 | 11635 ft | 280 kts | 278° |
| 2026-05-05 19:49 | 52.26202 | 0.02981 | 11500 ft | 272 kts | 277° |
| 2026-05-05 19:49 | 52.26406 | -0.00026 | 11376 ft | 263 kts | 278° |
| 2026-05-05 19:49 | 52.26601 | -0.02882 | 11272 ft | 256 kts | 278° |
| 2026-05-05 19:50 | 52.26797 | -0.05688 | 11160 ft | 248 kts | 280° |
| 2026-05-05 19:50 | 52.27175 | -0.08391 | 11067 ft | 243 kts | 287° |
| 2026-05-05 19:50 | 52.27658 | -0.11068 | 10972 ft | 242 kts | 288° |
| 2026-05-05 19:50 | 52.28136 | -0.13671 | 10876 ft | 244 kts | 288° |
| 2026-05-05 19:51 | 52.28641 | -0.16454 | 10816 ft | 270 kts | 288° |
| 2026-05-05 19:51 | 52.29179 | -0.19464 | 10666 ft | 279 kts | 287° |
| 2026-05-05 19:51 | 52.29719 | -0.22527 | 10538 ft | 280 kts | 287° |
| 2026-05-05 19:51 | 52.30250 | -0.25577 | 10402 ft | 278 kts | 287° |
| 2026-05-05 19:52 | 52.30775 | -0.28608 | 10280 ft | 277 kts | 287° |
| 2026-05-05 19:52 | 52.31296 | -0.31625 | 10158 ft | 275 kts | 287° |
| 2026-05-05 19:52 | 52.31813 | -0.34631 | 10045 ft | 274 kts | 287° |
| 2026-05-05 19:52 | 52.32326 | -0.37621 | 9916 ft | 273 kts | 287° |
| 2026-05-05 19:53 | 52.32837 | -0.40604 | 9800 ft | 272 kts | 288° |
| 2026-05-05 19:53 | 52.33626 | -0.43388 | 9653 ft | 270 kts | 309° |
| 2026-05-05 19:53 | 52.35053 | -0.45335 | 9559 ft | 268 kts | 332° |
| 2026-05-05 19:53 | 52.36832 | -0.46235 | 9440 ft | 271 kts | 353° |
| 2026-05-05 19:54 | 52.38709 | -0.45965 | 9325 ft | 275 kts | 15° |
| 2026-05-05 19:54 | 52.40405 | -0.44474 | 9204 ft | 281 kts | 38° |
| 2026-05-05 19:54 | 52.41601 | -0.41931 | 9070 ft | 288 kts | 63° |
| 2026-05-05 19:54 | 52.42046 | -0.38720 | 8955 ft | 293 kts | 89° |
| 2026-05-05 19:55 | 52.41605 | -0.35451 | 8811 ft | 297 kts | 116° |
| 2026-05-05 19:55 | 52.40333 | -0.32813 | 8687 ft | 296 kts | 141° |
| 2026-05-05 19:55 | 52.38631 | -0.30990 | 8574 ft | 290 kts | 150° |
| 2026-05-05 19:55 | 52.36886 | -0.29360 | 8416 ft | 286 kts | 151° |
| 2026-05-05 19:56 | 52.35191 | -0.27768 | 8303 ft | 283 kts | 150° |
| 2026-05-05 19:56 | 52.33487 | -0.26144 | 8190 ft | 283 kts | 150° |
| 2026-05-05 19:56 | 52.31794 | -0.24519 | 8059 ft | 282 kts | 151° |
| 2026-05-05 19:56 | 52.29961 | -0.23481 | 7867 ft | 279 kts | 181° |
| 2026-05-05 19:57 | 52.28105 | -0.24159 | 7682 ft | 274 kts | 204° |
| 2026-05-05 19:57 | 52.26341 | -0.25394 | 7459 ft | 277 kts | 206° |
| 2026-05-05 19:57 | 52.24564 | -0.26655 | 7222 ft | 277 kts | 204° |
| 2026-05-05 19:57 | 52.22803 | -0.27881 | 6982 ft | 274 kts | 204° |
| 2026-05-05 19:58 | 52.21050 | -0.29076 | 6755 ft | 271 kts | 203° |
| 2026-05-05 19:58 | 52.19320 | -0.30238 | 6528 ft | 268 kts | 203° |
| 2026-05-05 19:58 | 52.17598 | -0.31382 | 6289 ft | 266 kts | 203° |
| 2026-05-05 19:58 | 52.15899 | -0.32501 | 6084 ft | 262 kts | 203° |
| 2026-05-05 19:59 | 52.14215 | -0.33603 | 5853 ft | 258 kts | 202° |
| 2026-05-05 19:59 | 52.12556 | -0.34684 | 5646 ft | 255 kts | 203° |
| 2026-05-05 19:59 | 52.10917 | -0.35750 | 5435 ft | 253 kts | 203° |
| 2026-05-05 19:59 | 52.09720 | -0.36527 | 5280 ft | 251 kts | 202° |
| 2026-05-05 20:00 | 52.09089 | -0.36935 | 5184 ft | 251 kts | 202° |
| 2026-05-05 20:00 | 52.07466 | -0.37986 | 4993 ft | 249 kts | 202° |
| 2026-05-05 20:01 | 52.05875 | -0.39014 | 4768 ft | 241 kts | 203° |
| 2026-05-05 20:01 | 52.04346 | -0.40001 | 4594 ft | 231 kts | 202° |
| 2026-05-05 20:01 | 52.02882 | -0.40947 | 4400 ft | 225 kts | 201° |
| 2026-05-05 20:01 | 52.01444 | -0.41874 | 4204 ft | 221 kts | 201° |
| 2026-05-05 20:02 | 52.00018 | -0.42793 | 4005 ft | 219 kts | 201° |
| 2026-05-05 20:02 | 51.98641 | -0.43680 | 3837 ft | 207 kts | 200° |
| 2026-05-05 20:02 | 51.97342 | -0.44517 | 3650 ft | 196 kts | 200° |
| 2026-05-05 20:02 | 51.96090 | -0.45322 | 3489 ft | 189 kts | 200° |
| 2026-05-05 20:03 | 51.94908 | -0.46082 | 3319 ft | 176 kts | 199° |
| 2026-05-05 20:03 | 51.93781 | -0.46805 | 3195 ft | 188 kts | 199° |
| 2026-05-05 20:03 | 51.92454 | -0.47650 | 3040 ft | 216 kts | 199° |
| 2026-05-05 20:03 | 51.91084 | -0.48529 | 2850 ft | 205 kts | 200° |
| 2026-05-05 20:04 | 51.89802 | -0.49355 | 2598 ft | 195 kts | 199° |
| 2026-05-05 20:04 | 51.88523 | -0.50173 | 2169 ft | 196 kts | 199° |
| 2026-05-05 20:04 | 51.87283 | -0.50707 | 2013 ft | 177 kts | 172° |
| 2026-05-05 20:04 | 51.86304 | -0.49857 | 1930 ft | 157 kts | 116° |
| 2026-05-05 20:05 | 51.86013 | -0.48234 | 1804 ft | 150 kts | 99° |
| 2026-05-05 20:05 | 51.85855 | -0.46671 | 1599 ft | 133 kts | 78° |
| 2026-05-05 20:05 | 51.86047 | -0.45261 | 1479 ft | 128 kts | 73° |
| 2026-05-05 20:05 | 51.86256 | -0.43865 | 1238 ft | 126 kts | 72° |
| 2026-05-05 20:06 | 51.86485 | -0.42513 | 1097 ft | 125 kts | 70° |
| 2026-05-05 20:06 | 51.86730 | -0.41135 | 917 ft | 131 kts | 71° |
| 2026-05-05 20:06 | 51.86963 | -0.39686 | 722 ft | 134 kts | 69° |
| 2026-05-05 20:06 | 51.87217 | -0.38278 | 548 ft | 127 kts | 68° |
| 2026-05-05 20:07 | 51.87432 | -0.37030 | 522 ft | 90 kts | 75° |
| 2026-05-05 20:07 | 51.87548 | -0.36356 | 520 ft | 45 kts | 74° |
| 2026-05-05 20:07 | 51.87609 | -0.35997 | 515 ft | 26 kts | 74° |
| 2026-05-05 20:07 | 51.87666 | -0.35922 | 515 ft | 9 kts | 355° |
| 2026-05-05 20:08 | 51.87748 | -0.35958 | 515 ft | 15 kts | 335° |
| 2026-05-05 20:08 | 51.87779 | -0.36104 | 517 ft | 16 kts | 252° |
| 2026-05-05 20:08 | 51.87741 | -0.36318 | 517 ft | 24 kts | 253° |
| 2026-05-05 20:08 | 51.87700 | -0.36564 | 519 ft | 23 kts | 254° |
| 2026-05-05 20:09 | 51.87656 | -0.36819 | 524 ft | 18 kts | 254° |
| 2026-05-05 20:09 | 51.87672 | -0.36945 | 523 ft | 12 kts | 333° |
| 2026-05-05 20:09 | 51.87717 | -0.36972 | 520 ft | 16 kts | 342° |
| 2026-05-05 20:09 | 51.87808 | -0.37021 | 513 ft | 21 kts | 342° |
| 2026-05-05 20:10 | 51.87954 | -0.37097 | 508 ft | 19 kts | 342° |
| 2026-05-05 20:10 | 51.88088 | -0.37170 | 508 ft | 22 kts | 341° |
| 2026-05-05 20:10 | 51.88207 | -0.37233 | 516 ft | 14 kts | 338° |
| 2026-05-05 20:10 | 51.88229 | -0.37331 | 516 ft | 9 kts | 254° |
| 2026-05-05 20:11 | 51.88206 | -0.37454 | 515 ft | 14 kts | 249° |
| 2026-05-05 20:11 | 51.88189 | -0.37498 | 515 ft | 0 kts | 210° |
| 2026-05-05 20:11 | 51.88185 | -0.37494 | 515 ft | 1 kts | 153° |
| 2026-05-05 20:11 | 51.88187 | -0.37478 | 515 ft | 3 kts | 75° |
| 2026-05-05 20:12 | 51.88174 | -0.37441 | 516 ft | 4 kts | 155° |
| 2026-05-05 20:12 | 51.88154 | -0.37431 | 516 ft | 0 kts | 162° |